메인 페이지
METAR-TAF:

METAR-TAF

공항 :

위니펙, 매니토바, 캐나다

위도: 49-54N, 경도: 097-14W, 고도: 239m

현재 날씨관측

예보는 46분 전, 10:00시(UTC)에 발표되었습니다.
16kt, 순간 최대 풍속 21kt
온도 4°C
습도 56%
기압 1019 hPa
시정: 24.1km
맑음

METAR: CYWG 251000Z 19016G21KT 15SM SKC 04/M04 A3010 RMK SLP204

시각: 05:46 (10:46 UTC)

예보

예보는 5 시간 8분 전, 05:38시(UTC)에 발표되었습니다.
예보 대상 시간: 25일 06시부터 26일 06시까지 (UTC)
남남동10kt
시정: 10km
고도 20000ft 상공 구름 보통
25일 0900시부터 (UTC)
15kt
시정: 10km
고도 20000ft 상공 구름 많음
전환 중
25일 14시부터 25일 16시까지 (UTC)
남남서20kt, 순간 최대 풍속 30kt
25일 2300시부터 (UTC)
북북서20kt, 순간 최대 풍속 30kt
시정: 10km
고도 8000ft 상공 구름 보통
고도 20000ft 상공 구름 많음

TAF: CYWG 250538Z 2506/2606 16010KT P6SM SCT200 FM250900 19015KT P6SM BKN200 BECMG 2514/2516 21020G30KT FM252300 34020G30KT P6SM SCT080 BKN200 RMK NXT FCST BY 251200Z

4,000개 이상의 공항 관측 자료 및 예보 (METAR 및 TAF 보고).

지도상에서 검색 가능한 기상관측소가 노란 점과 빨간 점으로 표시되어 있습니다.

기상관측소 명을 보려면 표시 위로 마우스를 이동하세요.

날씨 관측과 예보를 보려면 클릭하세요.

지도 변경 : 확대하려면 엑스 표시가 있는 녹색 버튼, 축소하려면 빼기 표시가 있는 녹색 버튼, 다음 페이지의 지도를 보려면 녹색 화살표를 클릭하세요.


METAR-TAF: